createdAt,value
2023-01-17T00:02:00.878Z,5.32
2023-01-17T00:09:51.639Z,3.55
2023-01-17T00:17:24.334Z,8.85
2023-01-17T00:25:14.515Z,6.72
2023-01-17T00:32:46.189Z,4.65
2023-01-17T00:40:17.869Z,5.32
2023-01-17T00:48:08.124Z,3.78
2023-01-17T00:55:58.374Z,4.82
2023-01-17T01:03:48.615Z,5.28
2023-01-17T01:11:39.875Z,6.40
2023-01-17T01:19:30.058Z,5.95
2023-01-17T01:27:20.216Z,3.42
2023-01-17T01:34:51.972Z,3.00
2023-01-17T01:42:23.818Z,3.67
2023-01-17T01:49:55.613Z,3.65
2023-01-17T01:57:32.250Z,2.72
2023-01-17T02:05:04.876Z,2.97
2023-01-17T02:12:36.702Z,3.25
2023-01-17T02:20:34.062Z,3.60
2023-01-17T02:28:48.096Z,3.17
2023-01-17T02:36:26.289Z,7.53
2023-01-17T02:43:58.069Z,3.47
2023-01-17T02:51:53.403Z,3.58
2023-01-17T02:59:40.477Z,3.45
2023-01-17T03:07:17.444Z,3.45
2023-01-17T03:14:49.246Z,3.00
2023-01-17T03:22:20.989Z,1.83
2023-01-17T03:29:52.844Z,2.78
2023-01-17T03:37:24.643Z,4.03
2023-01-17T03:44:56.415Z,4.57
2023-01-17T03:52:28.204Z,1.75
2023-01-17T03:59:59.905Z,1.75
2023-01-17T04:07:31.607Z,4.05
2023-01-17T04:15:03.481Z,2.95
2023-01-17T04:22:35.199Z,2.55
2023-01-17T04:30:07.521Z,3.20
2023-01-17T04:37:39.217Z,2.83
2023-01-17T04:45:11.523Z,1.60
2023-01-17T04:52:43.235Z,1.83
2023-01-17T05:00:15.716Z,3.42
2023-01-17T05:07:57.157Z,1.80
2023-01-17T05:15:29.005Z,1.55
2023-01-17T05:23:00.800Z,3.13
2023-01-17T05:30:32.721Z,5.30
2023-01-17T05:38:04.458Z,5.97
2023-01-17T05:45:36.224Z,16.73
2023-01-17T05:53:12.468Z,9.45
2023-01-17T06:00:44.719Z,8.65
2023-01-17T06:08:16.489Z,3.85
2023-01-17T06:15:48.473Z,5.80
2023-01-17T06:23:20.396Z,5.28
2023-01-17T06:30:52.211Z,5.10
2023-01-17T06:38:23.931Z,7.18
2023-01-17T06:45:55.786Z,5.55
2023-01-17T06:53:27.536Z,9.18
2023-01-17T07:00:59.345Z,5.40
2023-01-17T07:08:31.553Z,1.75
2023-01-17T07:16:04.265Z,6.68
2023-01-17T07:23:36.024Z,4.50
2023-01-17T07:31:08.246Z,6.53
2023-01-17T07:38:40.331Z,3.83
2023-01-17T07:46:15.079Z,3.88
2023-01-17T07:53:46.818Z,4.80
2023-01-17T08:01:18.674Z,2.10
2023-01-17T08:08:50.544Z,2.78
2023-01-17T08:16:22.359Z,3.63
2023-01-17T08:23:54.142Z,2.38
2023-01-17T08:31:26.367Z,1.70
2023-01-17T08:38:58.413Z,4.18
2023-01-17T08:46:32.138Z,6.93
2023-01-17T08:54:04.671Z,4.05
2023-01-17T09:01:40.656Z,1.90
2023-01-17T09:09:13.637Z,2.10
2023-01-17T09:16:45.423Z,2.83
2023-01-17T09:24:17.177Z,3.30
2023-01-17T09:31:48.967Z,5.07
2023-01-17T09:39:20.727Z,4.30
2023-01-17T09:46:55.170Z,1.70
2023-01-17T09:54:32.788Z,2.65
2023-01-17T10:02:17.191Z,6.72
2023-01-17T10:10:28.351Z,1.48
2023-01-17T10:18:32.221Z,2.40
2023-01-17T10:26:18.550Z,1.65
2023-01-17T10:33:57.947Z,1.23
2023-01-17T10:41:37.171Z,2.80
2023-01-17T10:49:21.956Z,1.55
2023-01-17T10:56:53.737Z,4.22
2023-01-17T11:04:40.500Z,2.08
2023-01-17T11:12:44.206Z,100.53
2023-01-17T11:20:38.632Z,493.33
2023-01-17T11:28:31.339Z,493.10
2023-01-17T11:36:03.157Z,416.88
2023-01-17T11:43:50.537Z,424.02
2023-01-17T11:51:39.794Z,414.52
2023-01-17T11:59:28.583Z,412.70
2023-01-17T12:07:28.659Z,392.90
2023-01-17T12:15:51.864Z,386.85
2023-01-17T12:23:54.471Z,377.77
2023-01-17T12:31:43.771Z,283.25
2023-01-17T12:39:16.498Z,184.73
2023-01-17T12:47:01.170Z,145.48
2023-01-17T12:54:40.012Z,124.38
2023-01-17T13:02:33.450Z,111.20
2023-01-17T13:10:15.907Z,99.07
2023-01-17T13:17:53.090Z,96.43
2023-01-17T13:25:42.255Z,87.97
2023-01-17T13:33:20.075Z,75.88
2023-01-17T13:40:58.374Z,74.68
2023-01-17T13:48:37.459Z,65.03
2023-01-17T13:56:32.094Z,62.60
2023-01-17T14:04:11.013Z,55.60
2023-01-17T14:12:11.099Z,55.00
2023-01-17T14:19:46.036Z,50.95
2023-01-17T14:27:23.050Z,38.60
2023-01-17T14:34:54.885Z,39.92
2023-01-17T14:42:29.232Z,34.97
2023-01-17T14:50:24.262Z,30.58
2023-01-17T14:57:56.639Z,38.83
2023-01-17T15:05:29.646Z,32.20
2023-01-17T15:13:09.014Z,28.55
2023-01-17T15:20:50.166Z,24.10
2023-01-17T15:28:22.013Z,22.85
2023-01-17T15:41:11.559Z,28.23
2023-01-17T15:48:44.811Z,21.65
2023-01-17T15:56:36.785Z,23.52
2023-01-17T16:04:34.783Z,19.75
2023-01-17T16:12:06.561Z,20.58
2023-01-17T16:19:38.272Z,20.05
2023-01-17T16:27:10.035Z,13.93
2023-01-17T16:34:42.312Z,14.90
2023-01-17T16:42:14.076Z,17.70
2023-01-17T16:49:45.871Z,17.20
2023-01-17T16:57:17.701Z,17.83
2023-01-17T17:04:49.429Z,13.15
2023-01-17T17:12:21.272Z,16.30
2023-01-17T17:19:53.145Z,17.42
2023-01-17T17:27:27.813Z,16.20
2023-01-17T17:34:59.652Z,14.38
2023-01-17T17:42:31.581Z,16.23
2023-01-17T17:50:03.839Z,11.77
2023-01-17T17:57:35.639Z,15.55
2023-01-17T18:05:07.526Z,15.80
2023-01-17T18:12:39.274Z,14.13
2023-01-17T18:20:11.108Z,15.70
2023-01-17T18:27:44.902Z,18.73
2023-01-17T18:35:16.653Z,17.23
2023-01-17T18:42:48.689Z,19.88
2023-01-17T18:50:20.425Z,19.85
2023-01-17T18:57:52.347Z,20.05
2023-01-17T19:05:24.560Z,18.40
2023-01-17T19:12:56.315Z,20.40
2023-01-17T19:20:28.053Z,18.10
2023-01-17T19:27:59.779Z,23.13
2023-01-17T19:35:31.552Z,19.25
2023-01-17T19:43:04.478Z,17.83
2023-01-17T19:50:36.199Z,18.42
2023-01-17T19:58:07.894Z,21.00
2023-01-17T20:05:39.740Z,20.92
2023-01-17T20:13:11.521Z,20.13
2023-01-17T20:20:56.376Z,21.27
2023-01-17T20:28:29.414Z,18.95
2023-01-17T20:36:10.237Z,20.48
2023-01-17T20:43:49.666Z,20.85
2023-01-17T20:51:25.678Z,24.15
2023-01-17T20:58:57.929Z,23.80
2023-01-17T21:06:30.423Z,19.02
2023-01-17T21:14:02.183Z,20.00
2023-01-17T21:21:33.973Z,17.73
2023-01-17T21:29:05.734Z,17.33
2023-01-17T21:36:41.395Z,17.30
2023-01-17T21:44:21.269Z,18.10
2023-01-17T21:51:53.091Z,16.23
2023-01-17T21:59:24.861Z,15.88
2023-01-17T22:06:56.683Z,20.40
2023-01-17T22:14:28.910Z,19.73
2023-01-17T22:22:03.958Z,17.35
2023-01-17T22:29:38.707Z,15.52
2023-01-17T22:37:10.532Z,13.38
2023-01-17T22:44:42.290Z,19.45
2023-01-17T22:52:14.073Z,12.43
2023-01-17T22:59:45.912Z,13.57
2023-01-17T23:07:17.636Z,12.18
2023-01-17T23:15:07.838Z,16.73
2023-01-17T23:22:39.548Z,11.52
2023-01-17T23:30:24.892Z,12.68
2023-01-17T23:38:15.070Z,10.85
2023-01-17T23:45:46.851Z,14.38
2023-01-17T23:53:23.346Z,11.05
